Time;durP1;ratioP1;P1;durP2;ratioP2;P2;SDS_P1;SDS_P2;PMS_P1;PMS_P2;Temp;Humidity;BMP_temperature;BMP_pressure;BME280_temperature;BME280_humidity;BME280_pressure;Samples;Min_cycle;Max_cycle;Signal;HPM_P1;HPM_P2
2024/01/16 06:13:46;;;;;;;14.75;7.63;;;;;;;0.28;55.86;94220.66;6220598;22;20040;-86
2024/01/16 06:16:11;;;;;;;13.05;6.50;;;;;;;0.11;54.97;94211.16;6158223;23;20027;-85
2024/01/16 06:18:37;;;;;;;14.30;6.53;;;;;;;0.21;55.25;94214.53;6133663;23;20091;-85
2024/01/16 08:01:09;;;;;;;13.70;7.13;;;;;;;1.02;53.31;94224.13;6272566;22;20024;-85
2024/01/16 08:03:38;;;;;;;11.70;6.30;;;;;;;1.59;51.77;94210.28;6247103;22;20019;-85
2024/01/16 08:06:04;;;;;;;12.27;6.75;;;;;;;2.54;48.83;94224.06;6222256;22;20016;-85
2024/01/16 08:08:31;;;;;;;14.90;6.40;;;;;;;3.33;48.18;94212.63;6222323;22;20048;-85
2024/01/16 08:34:13;;;;;;;13.07;7.60;;;;;;;7.44;37.09;94213.66;6221612;22;20028;-85
2024/01/16 08:36:40;;;;;;;12.63;6.90;;;;;;;8.09;36.36;94203.31;6161785;23;20019;-85
2024/01/16 08:39:05;;;;;;;10.98;6.53;;;;;;;7.85;36.58;94201.13;6163296;23;20008;-86
2024/01/16 08:41:31;;;;;;;10.02;6.88;;;;;;;7.89;36.42;94192.00;6136691;23;20013;-86
2024/01/16 08:43:56;;;;;;;10.15;7.15;;;;;;;8.52;35.34;94197.28;6160336;23;20008;-85
2024/01/16 08:46:25;;;;;;;10.45;7.03;;;;;;;9.02;33.96;94197.94;6159581;23;20016;-85
2024/01/16 08:48:54;;;;;;;10.85;7.13;;;;;;;9.06;35.52;94193.16;6159559;23;20012;-86
2024/01/16 08:51:20;;;;;;;10.52;6.78;;;;;;;9.74;34.00;94200.97;6185195;23;20036;-85
2024/01/16 09:01:21;;;;;;;9.57;6.22;;;;;;;10.96;31.05;94175.53;6224627;22;20032;-84
2024/01/16 09:03:47;;;;;;;8.60;6.25;;;;;;;10.92;32.18;94187.34;6160419;23;20012;-85
2024/01/16 09:06:12;;;;;;;8.98;6.47;;;;;;;11.07;31.75;94189.69;6137774;23;20097;-84
2024/01/16 09:08:38;;;;;;;10.52;7.75;;;;;;;11.58;31.13;94186.28;6186528;23;20064;-84
2024/01/16 09:16:04;;;;;;;10.65;7.20;;;;;;;10.63;32.37;94178.22;6218805;22;20035;-84
2024/01/16 09:18:30;;;;;;;9.27;6.80;;;;;;;11.09;31.31;94179.88;6137091;23;20009;-85
2024/01/16 09:20:58;;;;;;;8.50;6.72;;;;;;;11.96;30.66;94176.88;6137908;23;20004;-85
2024/01/16 09:23:23;;;;;;;9.48;6.78;;;;;;;10.85;31.52;94171.78;6162415;23;20012;-84
2024/01/16 09:28:14;;;;;;;9.02;6.25;;;;;;;11.67;30.96;94169.41;6221619;22;20048;-85
2024/01/16 09:30:42;;;;;;;8.60;6.45;;;;;;;11.75;31.67;94176.16;6185647;23;20070;-84
2024/01/16 09:33:09;;;;;;;7.65;6.15;;;;;;;13.22;29.29;94180.88;6160441;23;20021;-84
2024/01/16 09:35:35;;;;;;;8.55;6.45;;;;;;;13.07;28.99;94185.69;6136009;23;20071;-85
2024/01/16 09:38:00;;;;;;;9.52;7.50;;;;;;;12.12;30.26;94190.16;6186037;23;20004;-84
2024/01/16 09:40:26;;;;;;;9.13;7.15;;;;;;;12.33;31.42;94182.97;6185346;23;20008;-84
2024/01/16 09:42:51;;;;;;;8.32;6.68;;;;;;;12.97;30.36;94185.41;6161052;23;20012;-84
2024/01/16 09:47:42;;;;;;;9.73;7.27;;;;;;;12.63;30.75;94184.94;6231268;22;20032;-86
2024/01/16 09:50:08;;;;;;;11.00;7.82;;;;;;;12.90;29.76;94188.84;6160384;23;20257;-85
2024/01/16 09:52:34;;;;;;;10.00;7.70;;;;;;;12.77;29.82;94182.97;6186166;23;20039;-85
2024/01/16 09:55:00;;;;;;;10.13;7.35;;;;;;;12.69;29.95;94190.06;6210734;23;20120;-85
2024/01/16 09:59:58;;;;;;;8.53;6.37;;;;;;;10.94;31.97;94174.94;6220638;22;20028;-83
2024/01/16 10:02:23;;;;;;;10.80;7.18;;;;;;;10.53;33.49;94184.63;6211343;23;20273;-86
2024/01/16 10:04:49;;;;;;;9.80;7.10;;;;;;;10.09;34.30;94186.03;6210486;23;20008;-85
2024/01/16 10:07:15;;;;;;;10.18;6.70;;;;;;;10.30;34.47;94181.59;6186227;23;20011;-85
2024/01/16 10:09:41;;;;;;;10.43;7.10;;;;;;;9.56;35.84;94178.19;6211506;23;20000;-86
2024/01/16 10:19:51;;;;;;;9.93;7.25;;;;;;;8.46;37.20;94170.34;6241695;23;20028;-85
2024/01/16 11:58:05;;;;;;;9.07;6.53;;;;;;;7.21;40.45;94088.84;6271743;22;20023;-85
2024/01/16 12:00:35;;;;;;;10.10;6.78;;;;;;;7.29;40.47;94087.94;6246324;22;20012;-85
2024/01/16 12:28:51;;;;;;;8.75;6.15;;;;;;;7.88;39.19;94055.75;6214696;22;20017;-85
2024/01/16 12:31:19;;;;;;;10.98;6.85;;;;;;;7.94;39.67;94060.16;6186684;23;20023;-86
2024/01/16 12:33:45;;;;;;;9.93;6.82;;;;;;;8.12;40.88;94051.94;6161786;23;20001;-85
